Bradford, NH (03221)

4:03 PM EDT on June 02, 2015 (GMT -0400)
South Sutton | | Change Station
CLOSE
Current Station
Personal Weather Station
Location: Bradford, NH
Elevation: 922 ft
Nearby Weather Stations

Elev 922 ft 43.30 °N, 71.94 °W | Updated 15 minutes ago

Overcast
Overcast
52.2 °F
Feels Like 52.2 °F
N
0.0
Wind Variable Wind from East

Today
High -- | Low -- °F
--% Chance of Precip.
Yesterday
High -- | Low -- °F
Precip. -- in
5:10 AM 8:22 PM
Full, 100% visible
Pressure 30.18 in
Visibility 10.0 miles
Clouds Scattered Clouds 1400 ft
Overcast 2700 ft
Dew Point 46 °F
Humidity 80%
Rainfall 0.32 in
Snow Depth Not available.
UV 2 out of 12
Pollen .80 out of 12
Air Quality Not available.
Flu Activity Sporadic
METAR KCON 021951Z AUTO 02006KT 10SM SCT014 OVC027 12/07 A3017 RMK AO2 SLP219 T01170067

More Conditions Fewer Conditions

Pressure 30.18 in
Visibility 10.0 miles
Clouds Scattered Clouds 1400 ft
Overcast 2700 ft
Dew Point 46 °F
Humidity 80%
Rainfall 0.32 in
Snow Depth Not available.
UV 2 out of 12
Pollen .80 out of 12
Air Quality Not available.
Flu Activity Sporadic
METAR KCON 021951Z AUTO 02006KT 10SM SCT014 OVC027 12/07 A3017 RMK AO2 SLP219 T01170067

More Conditions Fewer Conditions

10-Day Weather Forecast

×

Almanac

Astronomy

Jun. 02, 2015 Rise Set
Actual Time
Civil Twilight
Nautical Twilight
Astronomical Twilight
Moon
Length of Visible Light
Length of Day
Tomorrow will be .
, % of the Moon is Illuminated

Today's Extremes

State Highs State Lows

Community

WunderPhotos

Upload Photos

1,826,017 photos uploaded!

WunderBlogs® & News

Nearby

Air Quality

  Air Quality AQ Index Pollutant
Not available.

Snow Depth

Station Depth Elevation

Earthquake Activity

City Distance Mag. Time & Date
Minimum magnitude displayed is 2.5.

Coastal Water Temperatures

Place Temperature

Stations

Nearby Weather Stations

Station Location Temp. Windchill Dew Point Humidity Wind Precip. Elev Updated Type